createdAt,value
2018-09-11T00:01:52.745Z,10.63
2018-09-11T00:04:36.801Z,11.00
2018-09-11T00:07:17.994Z,10.53
2018-09-11T00:09:59.150Z,11.47
2018-09-11T00:12:40.792Z,10.83
2018-09-11T00:15:22.331Z,10.57
2018-09-11T00:18:09.463Z,11.23
2018-09-11T00:21:07.472Z,11.07
2018-09-11T00:23:48.105Z,11.17
2018-09-11T00:26:28.742Z,11.63
2018-09-11T00:29:13.085Z,11.50
2018-09-11T00:31:53.760Z,11.20
2018-09-11T00:34:43.029Z,11.00
2018-09-11T00:37:23.609Z,11.30
2018-09-11T00:40:09.364Z,11.87
2018-09-11T00:42:50.944Z,11.23
2018-09-11T00:45:32.052Z,10.50
2018-09-11T00:48:12.804Z,11.17
2018-09-11T00:50:53.534Z,10.70
2018-09-11T00:53:43.121Z,11.30
2018-09-11T00:56:24.220Z,10.60
2018-09-11T00:59:05.865Z,11.43
2018-09-11T01:01:46.741Z,11.10
2018-09-11T01:04:27.850Z,11.97
2018-09-11T01:07:11.166Z,12.47
2018-09-11T01:09:53.991Z,11.73
2018-09-11T01:12:34.773Z,12.23
2018-09-11T01:15:17.501Z,11.67
2018-09-11T01:17:58.049Z,12.30
2018-09-11T01:20:45.269Z,11.30
2018-09-11T01:23:25.973Z,11.53
2018-09-11T01:26:06.565Z,12.00
2018-09-11T01:28:48.796Z,12.90
2018-09-11T01:31:29.665Z,12.30
2018-09-11T01:34:15.821Z,11.27
2018-09-11T01:36:58.036Z,11.10
2018-09-11T01:42:24.982Z,11.50
2018-09-11T01:45:08.609Z,12.17
2018-09-11T01:47:50.442Z,12.03
2018-09-11T01:50:31.342Z,12.17
2018-09-11T01:53:17.572Z,13.10
2018-09-11T01:55:58.153Z,14.83
2018-09-11T01:58:38.946Z,14.43
2018-09-11T02:01:20.809Z,14.80
2018-09-11T02:04:01.484Z,14.17
2018-09-11T02:06:50.408Z,12.63
2018-09-11T02:09:30.865Z,13.17
2018-09-11T02:12:17.163Z,12.80
2018-09-11T02:14:57.873Z,11.73
2018-09-11T02:43:50.068Z,9.23
2018-09-11T02:46:30.472Z,8.83
2018-09-11T02:49:10.894Z,10.50
2018-09-11T02:51:51.809Z,9.47
2018-09-11T02:54:32.337Z,9.53
2018-09-11T02:57:12.841Z,8.93
2018-09-11T02:59:53.441Z,9.97
2018-09-11T03:02:33.979Z,8.93
2018-09-11T03:05:15.805Z,8.90
2018-09-11T03:07:56.493Z,8.93
2018-09-11T03:10:37.090Z,10.07
2018-09-11T03:13:19.898Z,8.50
2018-09-11T03:16:00.479Z,8.67
2018-09-11T03:18:41.045Z,9.77
2018-09-11T03:21:21.750Z,9.50
2018-09-11T03:24:02.280Z,9.20
2018-09-11T03:26:42.825Z,9.43
2018-09-11T03:29:23.369Z,9.40
2018-09-11T03:32:03.977Z,8.97
2018-09-11T03:34:45.810Z,8.90
2018-09-11T03:37:26.440Z,9.37
2018-09-11T03:40:07.045Z,9.40
2018-09-11T03:42:49.869Z,8.93
2018-09-11T03:45:30.412Z,9.77
2018-09-11T03:48:10.957Z,10.17
2018-09-11T03:50:52.164Z,10.03
2018-09-11T03:53:32.772Z,10.03
2018-09-11T03:56:13.316Z,10.80
2018-09-11T03:58:55.578Z,9.30
2018-09-11T04:01:36.150Z,9.07
2018-09-11T04:04:21.593Z,8.73
2018-09-11T04:07:02.154Z,8.40
2018-09-11T04:09:42.691Z,8.67
2018-09-11T04:12:23.400Z,8.80
2018-09-11T04:15:03.945Z,9.57
2018-09-11T04:17:45.869Z,9.40
2018-09-11T04:20:26.549Z,9.80
2018-09-11T04:23:08.033Z,9.20
2018-09-11T04:25:50.062Z,9.70
2018-09-11T04:28:30.864Z,9.87
2018-09-11T04:31:11.460Z,8.87
2018-09-11T04:33:51.925Z,9.23
2018-09-11T04:36:32.501Z,9.83
2018-09-11T04:39:12.883Z,9.80
2018-09-11T04:41:53.457Z,9.30
2018-09-11T04:44:34.001Z,10.00
2018-09-11T04:47:15.878Z,10.17
2018-09-11T04:49:56.461Z,9.77
2018-09-11T04:52:37.743Z,9.57
2018-09-11T04:55:20.094Z,10.37
2018-09-11T04:58:00.652Z,10.97
2018-09-11T05:00:41.200Z,11.93
2018-09-11T05:03:22.470Z,11.70
2018-09-11T05:06:02.945Z,12.07
2018-09-11T05:08:43.493Z,12.13
2018-09-11T05:11:24.392Z,12.10
2018-09-11T05:14:04.952Z,11.13
2018-09-11T05:16:47.001Z,11.57
2018-09-11T05:19:27.450Z,11.57
2018-09-11T05:22:08.041Z,10.97
2018-09-11T05:24:50.525Z,10.07
2018-09-11T05:27:31.055Z,11.10
2018-09-11T05:30:12.179Z,10.50
2018-09-11T05:32:53.653Z,10.70
2018-09-11T05:35:34.793Z,10.40
2018-09-11T05:38:17.072Z,10.03
2018-09-11T05:40:57.473Z,10.80
2018-09-11T05:43:41.890Z,9.80
2018-09-11T05:46:22.381Z,10.77
2018-09-11T05:49:02.940Z,10.13
2018-09-11T05:51:43.528Z,8.20
2018-09-11T05:54:24.105Z,8.00
2018-09-11T05:57:05.525Z,8.60
2018-09-11T05:59:50.563Z,8.40
2018-09-11T06:02:31.585Z,8.60
2018-09-11T06:05:12.059Z,8.53
2018-09-11T06:07:52.955Z,8.53
2018-09-11T06:10:34.137Z,9.03
2018-09-11T06:13:16.044Z,9.47
2018-09-11T06:15:56.601Z,8.90
2018-09-11T06:18:37.060Z,9.20
2018-09-11T06:21:22.092Z,9.10
2018-09-11T06:24:02.598Z,9.73
2018-09-11T06:26:50.381Z,9.17
2018-09-11T06:29:30.918Z,9.87
2018-09-11T06:32:11.569Z,8.57
2018-09-11T06:34:52.038Z,5.63
2018-09-11T06:37:32.612Z,4.80
2018-09-11T06:40:13.385Z,4.70
2018-09-11T06:42:53.981Z,4.80
2018-09-11T06:45:34.819Z,4.90
2018-09-11T06:48:17.941Z,4.70
2018-09-11T06:50:58.607Z,5.53
2018-09-11T06:53:39.249Z,5.30
2018-09-11T06:56:22.126Z,4.03
2018-09-11T06:59:02.824Z,4.67
2018-09-11T07:01:43.617Z,4.50
2018-09-11T07:04:24.334Z,4.50
2018-09-11T07:07:05.980Z,3.87
2018-09-11T07:09:49.410Z,4.50
2018-09-11T07:12:29.990Z,4.03
2018-09-11T07:15:11.453Z,3.87
2018-09-11T07:17:52.058Z,4.23
2018-09-11T07:20:32.725Z,4.60
2018-09-11T07:23:13.191Z,4.43
2018-09-11T07:25:53.826Z,4.60
2018-09-11T07:28:35.427Z,4.67
2018-09-11T07:31:17.430Z,5.00
2018-09-11T07:33:57.956Z,4.67
2018-09-11T07:36:38.613Z,4.57
2018-09-11T07:39:20.888Z,4.70
2018-09-11T07:42:01.395Z,4.40
2018-09-11T07:44:42.041Z,4.60
2018-09-11T07:47:22.665Z,4.33
2018-09-11T07:50:03.280Z,5.07
2018-09-11T07:52:43.933Z,4.70
2018-09-11T07:55:24.811Z,4.37
2018-09-11T07:58:05.432Z,5.20
2018-09-11T08:00:47.388Z,5.83
2018-09-11T08:03:27.925Z,5.10
2018-09-11T08:06:08.430Z,5.23
2018-09-11T08:08:50.694Z,4.67
2018-09-11T08:11:31.221Z,4.63
2018-09-11T08:14:11.653Z,4.57
2018-09-11T08:16:52.224Z,4.40
2018-09-11T08:19:32.817Z,4.17
2018-09-11T08:22:13.364Z,3.73
2018-09-11T08:24:54.866Z,4.30
2018-09-11T08:27:37.367Z,4.43
2018-09-11T08:30:20.240Z,4.63
2018-09-11T08:33:01.753Z,3.90
2018-09-11T08:35:42.225Z,4.60
2018-09-11T08:38:23.021Z,4.03
2018-09-11T08:41:03.655Z,4.33
2018-09-11T08:43:44.388Z,4.23
2018-09-11T08:46:25.927Z,4.10
2018-09-11T08:49:06.775Z,3.80
2018-09-11T08:51:51.412Z,4.60
2018-09-11T08:54:31.881Z,3.70
2018-09-11T08:57:12.335Z,4.03
2018-09-11T08:59:52.893Z,4.17
2018-09-11T09:02:33.338Z,4.83
2018-09-11T09:05:13.955Z,3.60
2018-09-11T09:07:54.473Z,4.57
2018-09-11T09:10:35.075Z,4.40
2018-09-11T09:13:17.159Z,4.80
2018-09-11T09:15:57.733Z,4.10
2018-09-11T09:18:38.141Z,4.63
2018-09-11T09:21:20.678Z,4.50
2018-09-11T09:24:01.272Z,4.17
2018-09-11T09:26:41.814Z,4.07
2018-09-11T09:29:22.361Z,4.03
2018-09-11T09:32:03.079Z,4.10
2018-09-11T09:34:43.716Z,4.40
2018-09-11T09:37:24.337Z,4.47
2018-09-11T09:40:07.363Z,4.07
2018-09-11T09:42:50.302Z,4.93
2018-09-11T09:45:30.921Z,4.23
2018-09-11T09:48:12.867Z,4.57
2018-09-11T09:50:53.542Z,4.67
2018-09-11T09:53:34.205Z,4.97
2018-09-11T09:56:16.110Z,4.47
2018-09-11T09:58:56.604Z,4.67
2018-09-11T10:01:44.409Z,5.10
2018-09-11T10:04:24.822Z,4.60
2018-09-11T10:07:05.297Z,4.10
2018-09-11T10:09:47.246Z,4.27
2018-09-11T10:12:27.864Z,4.60
2018-09-11T10:15:09.540Z,4.63
2018-09-11T10:17:51.308Z,5.00
2018-09-11T10:20:32.197Z,4.53
2018-09-11T10:23:12.789Z,4.63
2018-09-11T10:25:53.253Z,6.03
2018-09-11T10:28:34.530Z,5.87
2018-09-11T10:31:16.372Z,6.77
2018-09-11T10:33:56.981Z,7.43
2018-09-11T10:36:38.454Z,6.30
2018-09-11T10:39:20.925Z,6.47
2018-09-11T10:42:01.566Z,6.77
2018-09-11T10:44:41.986Z,6.33
2018-09-11T10:47:25.325Z,7.53
2018-09-11T10:50:05.991Z,6.13
2018-09-11T10:52:49.333Z,6.53
2018-09-11T10:55:31.202Z,6.50
2018-09-11T10:58:11.665Z,6.53
2018-09-11T11:00:52.188Z,6.60
2018-09-11T11:03:32.589Z,6.33
2018-09-11T11:06:13.131Z,6.30
2018-09-11T11:08:53.561Z,6.87
2018-09-11T11:11:33.994Z,5.10
2018-09-11T11:14:15.904Z,5.53
2018-09-11T11:16:56.444Z,6.70
2018-09-11T11:19:36.997Z,6.90
2018-09-11T11:22:20.780Z,5.37
2018-09-11T11:25:02.196Z,5.40
2018-09-11T11:27:42.865Z,6.13
2018-09-11T11:30:24.796Z,5.50
2018-09-11T11:33:05.420Z,4.70
2018-09-11T11:35:49.358Z,5.00
2018-09-11T11:38:29.935Z,4.93
2018-09-11T11:41:10.325Z,7.30
2018-09-11T11:43:51.953Z,4.73
2018-09-11T11:46:32.657Z,5.20
2018-09-11T11:49:13.249Z,4.27
2018-09-11T11:51:53.875Z,4.57
2018-09-11T11:54:34.452Z,4.10
2018-09-11T11:57:15.936Z,4.50
2018-09-11T11:59:56.460Z,4.40
2018-09-11T12:02:37.059Z,3.50
2018-09-11T12:05:20.049Z,3.60
2018-09-11T12:08:00.570Z,3.63
2018-09-11T12:10:41.099Z,4.20
2018-09-11T12:13:21.788Z,4.00
2018-09-11T12:16:02.291Z,4.30
2018-09-11T12:18:42.868Z,4.70
2018-09-11T12:21:23.177Z,4.20
2018-09-11T12:24:03.939Z,3.80
2018-09-11T12:26:46.332Z,3.53
2018-09-11T12:29:26.817Z,3.87
2018-09-11T12:32:07.211Z,4.10
2018-09-11T12:34:50.151Z,3.43
2018-09-11T12:37:30.535Z,3.27
2018-09-11T12:40:11.253Z,3.07
2018-09-11T12:42:51.849Z,2.80
2018-09-11T12:45:33.089Z,2.63
2018-09-11T12:48:13.972Z,2.63
2018-09-11T12:54:09.086Z,2.43
2018-09-11T12:56:52.652Z,3.03
2018-09-11T12:59:34.684Z,2.73
2018-09-11T13:02:15.348Z,2.63
2018-09-11T13:04:59.134Z,3.13
2018-09-11T13:07:41.409Z,2.53
2018-09-11T13:10:24.178Z,2.77
2018-09-11T13:13:05.762Z,3.00
2018-09-11T13:15:51.818Z,3.27
2018-09-11T13:18:32.601Z,2.70
2018-09-11T13:21:13.444Z,2.90
2018-09-11T13:23:54.239Z,2.90
2018-09-11T13:26:34.993Z,2.70
2018-09-11T13:29:16.173Z,2.87
2018-09-11T13:31:56.872Z,3.30
2018-09-11T13:34:37.564Z,3.00
2018-09-11T13:37:19.567Z,3.20
2018-09-11T13:40:00.259Z,3.03
2018-09-11T13:42:43.112Z,3.27
2018-09-11T13:45:24.710Z,2.93
2018-09-11T13:48:33.481Z,3.43
2018-09-11T13:51:16.385Z,3.10
2018-09-11T13:54:00.626Z,3.17
2018-09-11T13:56:43.658Z,3.50
2018-09-11T13:59:27.508Z,3.50
2018-09-11T14:02:12.326Z,3.30
2018-09-11T14:04:56.292Z,3.27
2018-09-11T14:07:39.159Z,3.50
2018-09-11T14:10:24.348Z,3.17
2018-09-11T14:13:18.963Z,3.30
2018-09-11T14:16:12.413Z,3.30
2018-09-11T14:18:56.202Z,5.57
2018-09-11T14:21:39.116Z,4.10
2018-09-11T14:24:24.055Z,4.23
2018-09-11T14:27:08.203Z,2.90
2018-09-11T14:29:54.434Z,2.87
2018-09-11T14:32:37.909Z,3.23
2018-09-11T14:35:22.731Z,4.70
2018-09-11T14:38:06.396Z,3.33
2018-09-11T14:40:50.478Z,3.07
2018-09-11T14:43:34.521Z,3.93
2018-09-11T14:46:17.361Z,4.87
2018-09-11T14:49:00.304Z,3.40
2018-09-11T14:51:43.710Z,3.40
2018-09-11T14:54:28.620Z,3.23
2018-09-11T14:57:11.436Z,3.63
2018-09-11T14:59:56.121Z,3.60
2018-09-11T15:02:39.207Z,5.63
2018-09-11T15:05:24.074Z,10.87
2018-09-11T15:08:06.870Z,7.77
2018-09-11T15:10:50.956Z,4.90
2018-09-11T15:13:33.723Z,3.80
2018-09-11T15:16:16.561Z,3.57
2018-09-11T15:18:59.750Z,3.47
2018-09-11T15:21:42.575Z,3.30
2018-09-11T15:24:26.423Z,4.00
2018-09-11T15:27:09.688Z,3.30
2018-09-11T15:29:57.686Z,3.70
2018-09-11T15:32:40.669Z,3.17
2018-09-11T15:35:25.542Z,3.37
2018-09-11T15:38:08.980Z,3.63
2018-09-11T15:40:53.097Z,3.80
2018-09-11T15:43:35.768Z,4.10
2018-09-11T15:46:18.422Z,3.43
2018-09-11T15:49:01.271Z,4.40
2018-09-11T15:51:44.031Z,4.37
2018-09-11T15:54:27.629Z,3.93
2018-09-11T15:57:10.564Z,4.30
2018-09-11T16:00:01.168Z,4.30
2018-09-11T16:02:44.263Z,4.80
2018-09-11T16:05:28.167Z,4.50
2018-09-11T16:08:18.600Z,5.43
2018-09-11T16:11:02.120Z,5.23
2018-09-11T16:13:44.949Z,5.60
2018-09-11T16:16:28.170Z,5.80
2018-09-11T16:19:11.319Z,6.50
2018-09-11T16:21:56.075Z,6.00
2018-09-11T16:24:39.158Z,6.77
2018-09-11T16:27:26.977Z,6.70
2018-09-11T16:30:10.106Z,7.30
2018-09-11T16:32:54.800Z,6.97
2018-09-11T16:35:37.562Z,7.10
2018-09-11T16:38:23.585Z,7.73
2018-09-11T16:41:07.159Z,8.70
2018-09-11T16:43:50.632Z,8.67
2018-09-11T16:46:33.461Z,9.30
2018-09-11T16:49:16.167Z,11.77
2018-09-11T16:51:58.890Z,13.00
2018-09-11T16:54:41.637Z,11.43
2018-09-11T16:57:26.569Z,11.07
2018-09-11T17:00:09.419Z,10.17
2018-09-11T17:02:54.391Z,8.30
2018-09-11T17:05:37.125Z,7.70
2018-09-11T17:08:19.340Z,7.77
2018-09-11T17:14:21.257Z,8.00
2018-09-11T17:17:02.030Z,7.40
2018-09-11T17:19:42.678Z,9.03
2018-09-11T17:22:25.062Z,11.77
2018-09-11T17:25:05.521Z,11.07
2018-09-11T17:27:46.080Z,10.53
2018-09-11T17:30:26.858Z,10.50
2018-09-11T17:33:07.380Z,10.20
2018-09-11T17:35:52.187Z,8.27
2018-09-11T17:38:32.563Z,9.80
2018-09-11T17:41:13.164Z,9.70
2018-09-11T17:43:56.057Z,9.67
2018-09-11T17:46:36.980Z,8.70
2018-09-11T17:49:18.727Z,9.00
2018-09-11T17:51:59.216Z,12.77
2018-09-11T17:54:39.812Z,8.83
2018-09-11T17:57:27.407Z,9.63
2018-09-11T18:00:08.921Z,9.30
2018-09-11T18:02:49.437Z,9.20
2018-09-11T18:05:30.549Z,14.50
2018-09-11T18:08:11.838Z,10.33
2018-09-11T18:10:56.110Z,9.57
2018-09-11T18:13:37.081Z,9.83
2018-09-11T18:16:17.841Z,10.93
2018-09-11T18:18:58.518Z,10.43
2018-09-11T18:21:40.408Z,10.67
2018-09-11T18:24:21.892Z,9.70
2018-09-11T18:27:02.493Z,10.17
2018-09-11T18:29:43.268Z,9.37
2018-09-11T18:32:26.344Z,8.13
2018-09-11T18:35:06.925Z,9.13
2018-09-11T18:37:54.819Z,9.53
2018-09-11T18:40:35.925Z,8.60
2018-09-11T18:43:17.023Z,9.43
2018-09-11T18:45:59.026Z,8.93
2018-09-11T18:48:39.629Z,9.60
2018-09-11T18:51:22.897Z,8.77
2018-09-11T18:54:03.543Z,8.93
2018-09-11T18:56:44.117Z,9.23
2018-09-11T18:59:26.679Z,8.73
2018-09-11T19:02:08.314Z,8.70
2018-09-11T19:04:48.992Z,9.67
2018-09-11T19:07:29.806Z,9.53
2018-09-11T19:10:10.542Z,9.37
2018-09-11T19:13:05.082Z,9.70
2018-09-11T19:15:45.749Z,9.37
2018-09-11T19:18:27.638Z,10.73
2018-09-11T19:21:08.139Z,11.17
2018-09-11T19:23:48.822Z,11.73
2018-09-11T19:26:29.470Z,11.40
2018-09-11T19:29:10.825Z,10.87
2018-09-11T19:31:52.477Z,11.20
2018-09-11T19:34:32.973Z,11.73
2018-09-11T19:37:13.644Z,11.53
2018-09-11T19:39:56.336Z,12.73
2018-09-11T19:42:37.075Z,10.97
2018-09-11T19:45:17.698Z,10.73
2018-09-11T19:47:58.290Z,12.10
2018-09-11T19:50:39.022Z,11.90
2018-09-11T19:53:19.372Z,12.73
2018-09-11T19:56:00.345Z,11.27
2018-09-11T19:58:41.039Z,12.00
2018-09-11T20:01:22.467Z,12.40
2018-09-11T20:04:03.014Z,11.47
2018-09-11T20:06:43.658Z,12.13
2018-09-11T20:09:28.118Z,11.90
2018-09-11T20:12:08.915Z,12.00
2018-09-11T20:14:49.589Z,12.93
2018-09-11T20:17:30.232Z,12.73
2018-09-11T20:20:11.139Z,13.33
2018-09-11T20:22:52.777Z,14.17
2018-09-11T20:25:41.411Z,14.17
2018-09-11T20:28:22.571Z,13.67
2018-09-11T20:31:03.102Z,13.00
2018-09-11T20:33:44.138Z,12.53
2018-09-11T20:36:26.470Z,12.63
2018-09-11T20:39:10.421Z,13.00
2018-09-11T20:41:50.878Z,12.93
2018-09-11T20:44:31.453Z,12.13
2018-09-11T20:47:12.105Z,12.30
2018-09-11T20:49:55.475Z,12.77
2018-09-11T20:52:36.027Z,11.07
2018-09-11T20:55:17.740Z,11.63
2018-09-11T20:57:58.421Z,11.90
2018-09-11T21:00:39.001Z,11.57
2018-09-11T21:03:19.645Z,12.37
2018-09-11T21:06:00.456Z,11.70
2018-09-11T21:08:41.097Z,10.43
2018-09-11T21:11:22.900Z,11.40
2018-09-11T21:14:03.347Z,10.90
2018-09-11T21:16:43.956Z,12.10
2018-09-11T21:19:27.899Z,12.10
2018-09-11T21:22:08.463Z,12.03
2018-09-11T21:24:48.948Z,11.63
2018-09-11T21:27:30.543Z,10.80
2018-09-11T21:30:11.116Z,11.33
2018-09-11T21:32:51.721Z,11.23
2018-09-11T21:35:32.207Z,10.97
2018-09-11T21:38:12.849Z,10.33
2018-09-11T21:40:54.404Z,10.40
2018-09-11T21:43:35.778Z,9.87
2018-09-11T21:46:16.418Z,9.43
2018-09-11T21:48:57.833Z,10.60
2018-09-11T21:51:39.397Z,9.93
2018-09-11T21:54:19.901Z,9.40
2018-09-11T21:57:00.401Z,9.03
2018-09-11T21:59:40.894Z,10.10
2018-09-11T22:02:21.343Z,9.27
2018-09-11T22:05:01.884Z,10.67
2018-09-11T22:07:42.472Z,9.07
2018-09-11T22:10:27.008Z,10.00
2018-09-11T22:13:07.492Z,10.13
